createdAt,value
2019-05-12T00:00:43.805Z,72.30
2019-05-12T00:03:13.627Z,72.20
2019-05-12T00:05:43.394Z,72.60
2019-05-12T00:08:14.169Z,72.20
2019-05-12T00:10:43.996Z,72.00
2019-05-12T00:13:13.818Z,72.00
2019-05-12T00:15:43.712Z,71.90
2019-05-12T00:18:14.546Z,72.10
2019-05-12T00:20:44.405Z,71.80
2019-05-12T00:23:24.986Z,72.10
2019-05-12T00:25:47.895Z,72.30
2019-05-12T00:28:17.896Z,71.60
2019-05-12T00:30:49.478Z,71.40
2019-05-12T00:33:19.961Z,71.40
2019-05-12T00:35:49.734Z,71.20
2019-05-12T00:38:19.624Z,71.50
2019-05-12T00:40:49.402Z,71.60
2019-05-12T00:43:19.245Z,71.20
2019-05-12T00:45:49.155Z,70.90
2019-05-12T00:48:18.928Z,71.10
2019-05-12T00:50:48.761Z,71.60
2019-05-12T00:53:19.015Z,71.90
2019-05-12T00:55:48.928Z,71.90
2019-05-12T00:58:19.455Z,71.90
2019-05-12T01:00:49.552Z,71.30
2019-05-12T01:03:19.342Z,71.30
2019-05-12T01:05:49.229Z,71.20
2019-05-12T01:08:19.192Z,70.70
2019-05-12T01:10:49.018Z,71.00
2019-05-12T01:13:18.931Z,71.10
2019-05-12T01:15:49.756Z,70.90
2019-05-12T01:18:19.654Z,70.30
2019-05-12T01:20:49.513Z,70.60
2019-05-12T01:23:23.242Z,70.40
2019-05-12T01:25:51.066Z,70.20
2019-05-12T01:28:20.867Z,70.40
2019-05-12T01:30:50.680Z,70.80
2019-05-12T01:33:20.578Z,70.50
2019-05-12T01:35:50.355Z,70.80
2019-05-12T01:38:20.127Z,70.90
2019-05-12T01:40:50.030Z,71.00
2019-05-12T01:43:21.217Z,71.00
2019-05-12T01:45:51.243Z,70.60
2019-05-12T01:48:21.022Z,70.70
2019-05-12T01:50:51.194Z,70.40
2019-05-12T01:53:20.957Z,70.70
2019-05-12T01:55:50.853Z,70.40
2019-05-12T01:58:20.849Z,70.80
2019-05-12T02:00:50.634Z,70.60
2019-05-12T02:03:20.405Z,70.20
2019-05-12T02:05:51.937Z,70.50
2019-05-12T02:08:27.755Z,70.30
2019-05-12T02:11:15.213Z,70.30
2019-05-12T02:13:45.006Z,70.30
2019-05-12T02:16:14.988Z,70.30
2019-05-12T02:18:44.760Z,69.40
2019-05-12T02:21:14.711Z,69.80
2019-05-12T02:23:44.607Z,69.70
2019-05-12T02:26:15.384Z,69.60
2019-05-12T02:28:45.257Z,69.60
2019-05-12T02:31:15.082Z,69.90
2019-05-12T02:33:44.908Z,70.00
2019-05-12T02:36:15.181Z,69.40
2019-05-12T02:38:45.486Z,69.80
2019-05-12T02:41:16.242Z,69.50
2019-05-12T02:43:46.144Z,69.30
2019-05-12T02:46:16.102Z,69.20
2019-05-12T02:48:45.899Z,69.50
2019-05-12T02:51:16.612Z,69.10
2019-05-12T02:53:47.835Z,68.80
2019-05-12T02:56:18.874Z,68.70
2019-05-12T02:58:49.394Z,68.30
2019-05-12T03:01:24.275Z,68.50
2019-05-12T03:03:55.273Z,68.80
2019-05-12T03:06:27.999Z,68.70
2019-05-12T03:09:04.938Z,68.60
2019-05-12T03:11:36.416Z,68.70
2019-05-12T03:14:06.192Z,68.70
2019-05-12T03:16:36.677Z,68.50
2019-05-12T03:19:06.443Z,68.30
2019-05-12T03:21:36.192Z,68.70
2019-05-12T03:24:06.753Z,68.60
2019-05-12T03:26:37.383Z,68.90
2019-05-12T03:29:07.243Z,68.30
2019-05-12T03:31:39.734Z,68.50
2019-05-12T03:34:10.856Z,68.60
2019-05-12T03:36:42.929Z,68.40
2019-05-12T03:39:14.697Z,68.60
2019-05-12T03:41:44.599Z,68.80
2019-05-12T03:44:15.193Z,69.20
2019-05-12T03:46:45.782Z,69.10
2019-05-12T03:49:15.858Z,69.20
2019-05-12T03:51:45.894Z,69.10
2019-05-12T03:54:15.798Z,69.10
2019-05-12T03:56:45.566Z,68.90
2019-05-12T03:59:15.445Z,69.20
2019-05-12T04:01:45.493Z,69.50
2019-05-12T04:04:15.599Z,69.50
2019-05-12T04:06:45.720Z,69.30
2019-05-12T04:09:15.947Z,69.10
2019-05-12T04:11:45.928Z,69.10
2019-05-12T04:14:15.750Z,69.10
2019-05-12T04:16:46.613Z,69.20
2019-05-12T04:19:16.379Z,69.00
2019-05-12T04:21:46.164Z,69.00
2019-05-12T04:24:15.935Z,68.60
2019-05-12T04:26:45.825Z,68.90
2019-05-12T04:29:15.823Z,68.70
2019-05-12T04:31:46.686Z,68.50
2019-05-12T04:34:19.137Z,68.90
2019-05-12T04:36:48.363Z,68.80
2019-05-12T04:39:18.144Z,69.00
2019-05-12T04:41:47.923Z,69.10
2019-05-12T04:44:17.694Z,68.90
2019-05-12T04:46:47.594Z,69.00
2019-05-12T04:49:17.370Z,68.90
2019-05-12T04:51:47.138Z,69.00
2019-05-12T04:54:16.997Z,69.10
2019-05-12T04:56:47.873Z,68.70
2019-05-12T04:59:17.678Z,68.40
2019-05-12T05:01:47.580Z,68.40
2019-05-12T05:04:17.348Z,68.60
2019-05-12T05:06:47.122Z,68.70
2019-05-12T05:09:16.922Z,68.60
2019-05-12T05:11:47.710Z,68.50
2019-05-12T05:14:18.242Z,68.50
2019-05-12T05:16:48.015Z,68.60
2019-05-12T05:19:17.780Z,68.60
2019-05-12T05:21:47.665Z,68.60
2019-05-12T05:24:17.430Z,68.70
2019-05-12T05:26:47.237Z,68.50
2019-05-12T05:29:17.094Z,68.60
2019-05-12T05:31:46.906Z,68.50
2019-05-12T05:34:17.506Z,69.00
2019-05-12T05:36:51.024Z,68.70
2019-05-12T05:39:19.553Z,68.90
2019-05-12T05:41:51.166Z,68.70
2019-05-12T05:44:23.847Z,68.80
2019-05-12T05:46:54.635Z,68.90
2019-05-12T05:49:24.877Z,68.50
2019-05-12T05:51:57.466Z,68.70
2019-05-12T05:54:31.359Z,68.40
2019-05-12T05:57:02.584Z,68.50
2019-05-12T05:59:31.688Z,68.50
2019-05-12T06:02:00.693Z,68.90
2019-05-12T06:04:30.935Z,68.80
2019-05-12T06:07:00.750Z,69.10
2019-05-12T06:09:30.525Z,69.00
2019-05-12T06:12:05.222Z,69.10
2019-05-12T06:14:34.077Z,68.90
2019-05-12T06:17:04.314Z,69.10
2019-05-12T06:19:34.955Z,68.90
2019-05-12T06:22:09.184Z,68.60
2019-05-12T06:24:37.360Z,68.70
2019-05-12T06:27:15.256Z,68.70
2019-05-12T06:29:38.803Z,68.80
2019-05-12T06:32:10.813Z,68.40
2019-05-12T06:34:43.346Z,68.70
2019-05-12T06:37:16.897Z,68.70
2019-05-12T06:39:44.225Z,68.90
2019-05-12T06:42:16.961Z,68.20
2019-05-12T06:44:48.976Z,68.30
2019-05-12T06:47:17.776Z,67.80
2019-05-12T06:49:48.881Z,67.90
2019-05-12T06:52:19.259Z,68.10
2019-05-12T06:54:51.129Z,68.00
2019-05-12T06:57:25.102Z,68.20
2019-05-12T06:59:55.054Z,68.40
2019-05-12T07:02:24.622Z,68.10
2019-05-12T07:04:59.395Z,68.30
2019-05-12T07:07:27.681Z,68.40
2019-05-12T07:10:07.964Z,68.30
2019-05-12T07:12:33.581Z,68.40
2019-05-12T07:15:03.861Z,68.50
2019-05-12T07:17:43.760Z,68.30
2019-05-12T07:20:10.067Z,68.30
2019-05-12T07:22:44.075Z,68.50
2019-05-12T07:25:13.445Z,68.70
2019-05-12T07:27:45.693Z,68.90
2019-05-12T07:30:17.982Z,68.90
2019-05-12T07:32:51.181Z,68.80
2019-05-12T07:35:20.081Z,69.00
2019-05-12T07:37:50.509Z,69.10
2019-05-12T07:40:28.003Z,68.80
2019-05-12T07:42:54.339Z,68.90
2019-05-12T07:45:25.311Z,68.90
2019-05-12T07:47:59.366Z,68.90
2019-05-12T07:50:27.775Z,68.60
2019-05-12T07:52:57.566Z,68.60
2019-05-12T07:55:27.330Z,68.30
2019-05-12T07:58:04.002Z,67.40
2019-05-12T08:00:28.673Z,67.00
2019-05-12T08:02:58.595Z,67.20
2019-05-12T08:05:29.429Z,67.10
2019-05-12T08:08:00.627Z,66.60
2019-05-12T08:10:31.440Z,66.60
2019-05-12T08:13:04.378Z,66.40
2019-05-12T08:15:34.582Z,65.90
2019-05-12T08:18:07.768Z,65.80
2019-05-12T08:20:35.974Z,65.00
2019-05-12T08:23:10.144Z,63.70
2019-05-12T08:25:37.403Z,63.40
2019-05-12T08:28:15.601Z,63.40
2019-05-12T08:30:47.461Z,63.40
2019-05-12T08:33:10.473Z,62.50
2019-05-12T08:35:40.259Z,63.00
2019-05-12T08:38:10.024Z,62.30
2019-05-12T08:40:45.344Z,62.20
2019-05-12T08:43:11.669Z,61.60
2019-05-12T08:45:41.463Z,61.00
2019-05-12T08:48:17.077Z,61.80
2019-05-12T08:50:46.031Z,60.70
2019-05-12T08:53:20.860Z,61.30
2019-05-12T08:55:47.288Z,59.90
2019-05-12T08:58:30.149Z,59.30
2019-05-12T09:00:50.531Z,60.10
2019-05-12T09:03:25.306Z,60.80
2019-05-12T09:05:53.565Z,60.60
2019-05-12T09:08:24.340Z,60.10
2019-05-12T09:10:55.535Z,59.00
2019-05-12T09:13:25.601Z,59.10
2019-05-12T09:15:55.375Z,59.10
2019-05-12T09:18:33.697Z,58.90
2019-05-12T09:20:56.633Z,58.70
2019-05-12T09:23:27.168Z,59.20
2019-05-12T09:25:57.518Z,59.00
2019-05-12T09:28:27.379Z,59.10
2019-05-12T09:30:57.921Z,58.10
2019-05-12T09:33:31.845Z,58.20
2019-05-12T09:35:59.762Z,58.80
2019-05-12T09:38:29.524Z,59.20
2019-05-12T09:41:01.395Z,59.10
2019-05-12T09:43:30.838Z,57.80
2019-05-12T09:46:00.685Z,57.20
2019-05-12T09:48:30.448Z,56.30
2019-05-12T09:51:02.003Z,55.10
2019-05-12T09:53:34.126Z,54.60
2019-05-12T09:56:04.448Z,54.70
2019-05-12T09:58:35.510Z,54.90
2019-05-12T10:01:05.277Z,55.00
2019-05-12T10:03:38.556Z,54.80
2019-05-12T10:06:11.315Z,55.00
2019-05-12T10:08:38.842Z,53.50
2019-05-12T10:11:10.244Z,53.50
2019-05-12T10:13:40.381Z,52.60
2019-05-12T10:16:10.274Z,53.00
2019-05-12T10:18:45.368Z,52.90
2019-05-12T10:21:15.324Z,52.20
2019-05-12T10:23:43.890Z,52.10
2019-05-12T10:26:14.787Z,51.30
2019-05-12T10:28:51.942Z,51.60
2019-05-12T10:31:18.607Z,51.50
2019-05-12T10:33:48.899Z,50.20
2019-05-12T10:36:19.209Z,50.70
2019-05-12T10:38:49.038Z,50.50
2019-05-12T10:41:18.892Z,50.50
2019-05-12T10:43:55.944Z,48.80
2019-05-12T10:46:26.816Z,48.90
2019-05-12T10:48:53.903Z,48.70
2019-05-12T10:51:23.956Z,49.10
2019-05-12T10:53:59.917Z,48.10
2019-05-12T10:56:25.486Z,47.00
2019-05-12T10:58:56.358Z,46.20
2019-05-12T11:01:26.133Z,46.70
2019-05-12T11:03:56.011Z,46.30
2019-05-12T11:06:25.894Z,47.80
2019-05-12T11:08:55.792Z,46.90
2019-05-12T11:11:25.589Z,46.20
2019-05-12T11:13:55.361Z,46.10
2019-05-12T11:16:30.751Z,44.80
2019-05-12T11:19:00.350Z,44.30
2019-05-12T11:21:28.558Z,44.60
2019-05-12T11:23:58.700Z,45.60
2019-05-12T11:26:28.597Z,45.80
2019-05-12T11:28:58.383Z,43.60
2019-05-12T11:31:28.253Z,42.60
2019-05-12T11:33:58.092Z,43.30
2019-05-12T11:36:27.978Z,44.20
2019-05-12T11:38:57.860Z,43.10
2019-05-12T11:41:29.196Z,43.40
2019-05-12T11:43:59.730Z,43.30
2019-05-12T11:46:29.610Z,43.40
2019-05-12T11:48:59.460Z,42.50
2019-05-12T11:51:30.669Z,43.50
2019-05-12T11:54:03.633Z,44.30
2019-05-12T11:56:33.630Z,44.50
2019-05-12T11:59:03.692Z,42.70
2019-05-12T12:01:34.544Z,43.60
2019-05-12T12:04:04.460Z,42.10
2019-05-12T12:06:34.258Z,41.40
2019-05-12T12:09:09.242Z,40.00
2019-05-12T12:11:38.897Z,40.30
2019-05-12T12:14:10.666Z,39.50
2019-05-12T12:16:41.933Z,38.70
2019-05-12T12:19:11.730Z,39.00
2019-05-12T12:21:46.197Z,39.00
2019-05-12T12:24:13.832Z,39.10
2019-05-12T12:26:44.539Z,39.50
2019-05-12T12:29:14.526Z,40.10
2019-05-12T12:31:51.782Z,40.80
2019-05-12T12:34:25.099Z,41.30
2019-05-12T12:36:54.445Z,41.00
2019-05-12T12:39:24.470Z,39.40
2019-05-12T12:42:00.058Z,39.40
2019-05-12T12:44:25.890Z,39.50
2019-05-12T12:47:00.099Z,39.70
2019-05-12T12:49:29.345Z,39.80
2019-05-12T12:51:58.606Z,40.20
2019-05-12T12:54:28.382Z,39.60
2019-05-12T12:57:00.107Z,40.00
2019-05-12T12:59:29.745Z,39.00
2019-05-12T13:02:07.474Z,38.00
2019-05-12T13:04:31.090Z,35.00
2019-05-12T13:07:00.946Z,34.70
2019-05-12T13:09:33.267Z,35.30
2019-05-12T13:12:05.923Z,35.20
2019-05-12T13:14:36.959Z,35.60
2019-05-12T13:17:05.147Z,36.70
2019-05-12T13:19:34.957Z,35.90
2019-05-12T13:22:08.943Z,35.20
2019-05-12T13:24:37.056Z,34.60
2019-05-12T13:27:07.014Z,33.00
2019-05-12T13:29:39.666Z,32.70
2019-05-12T13:32:08.470Z,33.40
2019-05-12T13:34:38.632Z,34.00
2019-05-12T13:37:09.435Z,33.00
2019-05-12T13:39:40.819Z,33.40
2019-05-12T13:42:10.746Z,33.20
2019-05-12T13:44:40.831Z,33.60
2019-05-12T13:47:13.891Z,34.00
2019-05-12T13:49:47.287Z,32.80
2019-05-12T13:52:14.798Z,33.70
2019-05-12T13:54:44.610Z,33.40
2019-05-12T13:57:14.421Z,33.30
2019-05-12T13:59:44.250Z,34.40
2019-05-12T14:02:22.149Z,35.10
2019-05-12T14:04:46.406Z,33.10
2019-05-12T14:07:20.036Z,32.70
2019-05-12T14:09:47.709Z,32.20
2019-05-12T14:12:17.474Z,33.10
2019-05-12T14:14:47.298Z,32.70
2019-05-12T14:17:17.212Z,33.40
2019-05-12T14:19:47.065Z,34.10
2019-05-12T14:22:21.370Z,34.30
2019-05-12T14:24:48.402Z,34.80
2019-05-12T14:27:19.098Z,34.30
2019-05-12T14:29:49.733Z,34.30
2019-05-12T14:32:19.560Z,34.50
2019-05-12T14:34:51.029Z,34.30
2019-05-12T14:37:20.837Z,35.10
2019-05-12T14:39:50.653Z,34.30
2019-05-12T14:42:26.061Z,35.00
2019-05-12T14:44:53.736Z,35.20
2019-05-12T14:47:25.660Z,34.30
2019-05-12T14:49:55.092Z,34.30
2019-05-12T14:52:24.970Z,34.00
2019-05-12T14:54:56.430Z,33.90
2019-05-12T14:57:29.532Z,33.70
2019-05-12T14:59:57.746Z,34.10
2019-05-12T15:02:29.625Z,34.40
2019-05-12T15:05:00.143Z,34.40
2019-05-12T15:07:31.914Z,33.60
2019-05-12T15:10:07.151Z,33.70
2019-05-12T15:12:33.575Z,33.40
2019-05-12T15:15:09.160Z,33.80
2019-05-12T15:17:35.745Z,33.70
2019-05-12T15:20:10.463Z,34.00
2019-05-12T15:22:42.891Z,32.90
2019-05-12T15:25:09.666Z,34.00
2019-05-12T15:27:45.017Z,33.50
2019-05-12T15:30:20.159Z,33.50
2019-05-12T15:32:42.629Z,33.30
2019-05-12T15:35:13.847Z,33.60
2019-05-12T15:37:44.799Z,33.80
2019-05-12T15:40:14.820Z,33.60
2019-05-12T15:42:45.415Z,33.00
2019-05-12T15:45:16.820Z,33.50
2019-05-12T15:47:46.949Z,33.40
2019-05-12T15:50:16.926Z,34.10
2019-05-12T15:52:46.770Z,34.00
2019-05-12T15:55:18.233Z,33.70
2019-05-12T15:57:48.253Z,33.60
2019-05-12T16:00:18.222Z,33.50
2019-05-12T16:02:48.122Z,34.00
2019-05-12T16:05:19.957Z,34.30
2019-05-12T16:07:49.633Z,33.40
2019-05-12T16:10:19.541Z,33.90
2019-05-12T16:12:49.313Z,33.60
2019-05-12T16:15:19.512Z,33.90
2019-05-12T16:17:49.303Z,33.70
2019-05-12T16:20:19.141Z,34.00
2019-05-12T16:22:48.949Z,34.10
2019-05-12T16:25:20.638Z,33.90
2019-05-12T16:27:50.254Z,34.30
2019-05-12T16:30:25.389Z,34.40
2019-05-12T16:32:54.839Z,34.40
2019-05-12T16:35:26.724Z,34.00
2019-05-12T16:37:54.634Z,33.70
2019-05-12T16:40:24.441Z,33.70
2019-05-12T16:42:59.697Z,34.40
2019-05-12T16:45:25.765Z,34.60
2019-05-12T16:47:59.412Z,34.00
2019-05-12T16:50:28.055Z,33.40
2019-05-12T16:52:58.074Z,33.50
2019-05-12T16:55:27.951Z,34.00
2019-05-12T16:57:57.920Z,33.80
2019-05-12T17:00:30.839Z,33.90
2019-05-12T17:02:59.255Z,34.80
2019-05-12T17:05:29.021Z,34.80
2019-05-12T17:07:58.788Z,35.00
2019-05-12T17:10:28.587Z,34.60
2019-05-12T17:12:58.567Z,34.10
2019-05-12T17:15:28.343Z,34.10
2019-05-12T17:18:01.438Z,34.20
2019-05-12T17:20:29.639Z,34.30
2019-05-12T17:23:00.435Z,34.60
2019-05-12T17:25:30.367Z,35.20
2019-05-12T17:28:03.703Z,35.10
2019-05-12T17:30:34.386Z,35.30
2019-05-12T17:33:05.111Z,35.20
2019-05-12T17:35:35.314Z,34.70
2019-05-12T17:38:05.182Z,35.00
2019-05-12T17:40:35.085Z,34.80
2019-05-12T17:43:09.369Z,35.00
2019-05-12T17:45:36.613Z,35.30
2019-05-12T17:48:07.915Z,35.60
2019-05-12T17:50:40.442Z,35.80
2019-05-12T17:53:10.049Z,36.10
2019-05-12T17:55:42.635Z,37.30
2019-05-12T17:58:13.725Z,36.80
2019-05-12T18:00:47.627Z,36.80
2019-05-12T18:03:21.521Z,36.90
2019-05-12T18:05:47.920Z,37.40
2019-05-12T18:08:18.074Z,37.50
2019-05-12T18:10:48.153Z,37.90
2019-05-12T18:13:23.209Z,38.40
2019-05-12T18:15:49.509Z,38.40
2019-05-12T18:18:24.231Z,38.30
2019-05-12T18:20:50.835Z,38.20
2019-05-12T18:23:28.629Z,38.20
2019-05-12T18:25:53.662Z,38.30
2019-05-12T18:28:27.702Z,37.80
2019-05-12T18:30:55.093Z,38.20
2019-05-12T18:33:33.236Z,38.30
2019-05-12T18:35:56.630Z,38.20
2019-05-12T18:38:26.870Z,38.30
2019-05-12T18:40:56.867Z,38.20
2019-05-12T18:43:26.689Z,38.20
2019-05-12T18:46:04.882Z,38.30
2019-05-12T18:48:28.161Z,38.70
2019-05-12T18:51:04.925Z,38.90
2019-05-12T18:53:31.945Z,39.10
2019-05-12T18:56:01.162Z,39.30
2019-05-12T18:58:32.557Z,39.50
2019-05-12T19:01:03.526Z,39.20
2019-05-12T19:03:47.156Z,39.10
2019-05-12T19:06:04.921Z,39.40
2019-05-12T19:08:34.774Z,39.60
2019-05-12T19:11:18.830Z,39.80
2019-05-12T19:13:36.201Z,39.80
2019-05-12T19:16:07.299Z,39.50
2019-05-12T19:18:37.597Z,39.60
2019-05-12T19:21:10.070Z,39.90
2019-05-12T19:23:38.958Z,40.10
2019-05-12T19:26:08.853Z,40.20
2019-05-12T19:28:44.284Z,40.20
2019-05-12T19:31:11.215Z,40.60
2019-05-12T19:33:44.032Z,40.50
2019-05-12T19:36:13.639Z,40.40
2019-05-12T19:38:44.239Z,40.70
2019-05-12T19:41:14.174Z,40.60
2019-05-12T19:43:45.340Z,41.60
2019-05-12T19:46:15.527Z,40.90
2019-05-12T19:48:49.738Z,41.00
2019-05-12T19:51:24.578Z,41.00
2019-05-12T19:53:50.239Z,40.90
2019-05-12T19:56:20.014Z,41.00
2019-05-12T19:58:50.497Z,41.00
2019-05-12T20:01:23.907Z,41.20
2019-05-12T20:03:55.823Z,41.20
2019-05-12T20:06:24.289Z,41.10
2019-05-12T20:09:06.029Z,41.40
2019-05-12T20:11:31.299Z,41.70
2019-05-12T20:13:58.182Z,41.70
2019-05-12T20:16:30.530Z,41.60
2019-05-12T20:18:59.636Z,41.90
2019-05-12T20:21:29.519Z,41.90
2019-05-12T20:23:59.334Z,41.90
2019-05-12T20:26:33.192Z,42.00
2019-05-12T20:29:00.788Z,42.20
2019-05-12T20:31:35.499Z,42.30
2019-05-12T20:34:10.704Z,42.60
2019-05-12T20:36:33.719Z,42.90
2019-05-12T20:39:09.972Z,43.10
2019-05-12T20:41:37.581Z,43.20
2019-05-12T20:44:10.021Z,43.30
2019-05-12T20:46:39.154Z,43.30
2019-05-12T20:49:12.001Z,43.20
2019-05-12T20:51:40.529Z,43.40
2019-05-12T20:54:14.056Z,43.30
2019-05-12T20:56:43.440Z,43.50
2019-05-12T20:59:21.674Z,43.60
2019-05-12T21:01:44.964Z,43.20
2019-05-12T21:04:14.749Z,43.40
2019-05-12T21:06:44.654Z,43.40
2019-05-12T21:09:14.523Z,43.50
2019-05-12T21:11:44.368Z,43.60
2019-05-12T21:14:14.771Z,43.70
2019-05-12T21:16:45.056Z,43.90
2019-05-12T21:19:15.055Z,44.10
2019-05-12T21:21:45.617Z,44.00
2019-05-12T21:24:15.502Z,44.40
2019-05-12T21:26:45.264Z,44.60
2019-05-12T21:29:19.144Z,44.70
2019-05-12T21:31:46.802Z,45.20
2019-05-12T21:34:21.245Z,45.30
2019-05-12T21:36:48.160Z,45.60
2019-05-12T21:39:18.369Z,45.80
2019-05-12T21:41:52.039Z,45.90
2019-05-12T21:44:20.528Z,46.20
2019-05-12T21:46:59.432Z,46.40
2019-05-12T21:49:21.876Z,46.70
2019-05-12T21:51:59.039Z,46.70
2019-05-12T21:54:29.381Z,46.80
2019-05-12T21:56:57.318Z,46.70
2019-05-12T21:59:28.891Z,47.00
2019-05-12T22:01:58.802Z,46.90
2019-05-12T22:04:32.943Z,47.30
2019-05-12T22:07:00.098Z,47.30
2019-05-12T22:09:32.960Z,47.40
2019-05-12T22:12:03.813Z,47.30
2019-05-12T22:14:38.688Z,47.30
2019-05-12T22:17:06.839Z,47.40
2019-05-12T22:19:38.129Z,47.70
2019-05-12T22:22:08.062Z,47.70
2019-05-12T22:24:39.019Z,47.90
2019-05-12T22:27:16.067Z,48.10
2019-05-12T22:29:43.699Z,48.40
2019-05-12T22:32:19.155Z,48.40
2019-05-12T22:34:45.619Z,48.20
2019-05-12T22:37:16.166Z,48.20
2019-05-12T22:39:45.963Z,48.20
2019-05-12T22:42:19.842Z,48.10
2019-05-12T22:44:47.269Z,48.30
2019-05-12T22:47:18.881Z,48.60
2019-05-12T22:49:52.220Z,49.30
2019-05-12T22:52:20.182Z,49.30
2019-05-12T22:54:51.091Z,49.40
2019-05-12T22:57:24.041Z,49.50
2019-05-12T22:59:53.493Z,49.60
2019-05-12T23:02:28.631Z,49.90
2019-05-12T23:04:55.530Z,49.80
2019-05-12T23:07:29.626Z,50.00
2019-05-12T23:10:00.713Z,50.20
2019-05-12T23:12:29.526Z,49.90
2019-05-12T23:15:02.799Z,49.70
2019-05-12T23:17:33.500Z,49.70
2019-05-12T23:20:04.856Z,49.70
2019-05-12T23:22:36.578Z,49.80
2019-05-12T23:25:11.393Z,50.00
2019-05-12T23:27:40.946Z,49.90
2019-05-12T23:30:13.478Z,49.90
2019-05-12T23:32:51.105Z,49.90
2019-05-12T23:35:14.628Z,49.90
2019-05-12T23:37:44.510Z,50.00
2019-05-12T23:40:16.651Z,50.50
2019-05-12T23:42:46.134Z,50.80
2019-05-12T23:45:16.009Z,50.80
2019-05-12T23:47:45.881Z,51.80
2019-05-12T23:50:15.770Z,51.20
2019-05-12T23:52:45.702Z,51.20
2019-05-12T23:55:15.513Z,51.20
2019-05-12T23:57:45.277Z,51.40
